sensor_id;sensor_type;location;lat;lon;timestamp;temperature;humidity
16198;DHT22;8206;51.440;6.914;2023-07-20T00:00:45;17.50;99.90
16198;DHT22;8206;51.440;6.914;2023-07-20T00:03:13;17.50;99.90
16198;DHT22;8206;51.440;6.914;2023-07-20T00:05:42;17.50;99.90
16198;DHT22;8206;51.440;6.914;2023-07-20T00:08:09;17.50;99.90
16198;DHT22;8206;51.440;6.914;2023-07-20T00:10:37;17.50;99.90
16198;DHT22;8206;51.440;6.914;2023-07-20T00:13:04;17.50;99.90
16198;DHT22;8206;51.440;6.914;2023-07-20T00:15:31;17.50;99.90
16198;DHT22;8206;51.440;6.914;2023-07-20T00:17:58;17.50;99.90
16198;DHT22;8206;51.440;6.914;2023-07-20T00:20:24;17.40;99.90
16198;DHT22;8206;51.440;6.914;2023-07-20T00:22:51;17.30;99.90
16198;DHT22;8206;51.440;6.914;2023-07-20T00:25:18;17.20;99.90
16198;DHT22;8206;51.440;6.914;2023-07-20T00:27:46;17.10;99.90
16198;DHT22;8206;51.440;6.914;2023-07-20T00:30:13;17.10;99.90
16198;DHT22;8206;51.440;6.914;2023-07-20T00:32:41;17.10;99.90
16198;DHT22;8206;51.440;6.914;2023-07-20T00:35:08;17.00;99.90
16198;DHT22;8206;51.440;6.914;2023-07-20T00:37:34;16.90;99.90
16198;DHT22;8206;51.440;6.914;2023-07-20T00:40:01;16.90;99.90
16198;DHT22;8206;51.440;6.914;2023-07-20T00:42:30;17.00;99.90
16198;DHT22;8206;51.440;6.914;2023-07-20T00:44:58;16.90;99.90
16198;DHT22;8206;51.440;6.914;2023-07-20T00:47:24;16.90;99.90
16198;DHT22;8206;51.440;6.914;2023-07-20T00:49:51;16.90;99.90
16198;DHT22;8206;51.440;6.914;2023-07-20T00:52:20;17.00;99.90
16198;DHT22;8206;51.440;6.914;2023-07-20T00:54:48;17.10;99.90
16198;DHT22;8206;51.440;6.914;2023-07-20T00:57:15;17.10;99.90
16198;DHT22;8206;51.440;6.914;2023-07-20T00:59:43;17.10;99.90
16198;DHT22;8206;51.440;6.914;2023-07-20T01:02:11;17.20;99.90
16198;DHT22;8206;51.440;6.914;2023-07-20T01:04:38;17.20;99.90
16198;DHT22;8206;51.440;6.914;2023-07-20T01:07:11;17.10;99.90
16198;DHT22;8206;51.440;6.914;2023-07-20T01:09:42;17.00;99.90
16198;DHT22;8206;51.440;6.914;2023-07-20T01:12:13;17.00;99.90
16198;DHT22;8206;51.440;6.914;2023-07-20T01:14:45;17.10;99.90
16198;DHT22;8206;51.440;6.914;2023-07-20T01:17:13;17.10;99.90
16198;DHT22;8206;51.440;6.914;2023-07-20T01:19:40;17.10;99.90
16198;DHT22;8206;51.440;6.914;2023-07-20T01:22:13;17.00;99.90
16198;DHT22;8206;51.440;6.914;2023-07-20T01:24:58;17.00;99.90
16198;DHT22;8206;51.440;6.914;2023-07-20T01:27:53;17.10;99.90
16198;DHT22;8206;51.440;6.914;2023-07-20T01:30:46;17.00;99.90
16198;DHT22;8206;51.440;6.914;2023-07-20T01:33:19;16.90;99.90
16198;DHT22;8206;51.440;6.914;2023-07-20T01:35:52;16.90;99.90
16198;DHT22;8206;51.440;6.914;2023-07-20T01:38:20;16.80;99.90
16198;DHT22;8206;51.440;6.914;2023-07-20T01:40:48;16.70;99.90
16198;DHT22;8206;51.440;6.914;2023-07-20T01:43:16;16.70;99.90
16198;DHT22;8206;51.440;6.914;2023-07-20T01:45:43;16.70;99.90
16198;DHT22;8206;51.440;6.914;2023-07-20T01:48:10;16.80;99.90
16198;DHT22;8206;51.440;6.914;2023-07-20T01:50:38;16.80;99.90
16198;DHT22;8206;51.440;6.914;2023-07-20T01:53:05;16.90;99.90
16198;DHT22;8206;51.440;6.914;2023-07-20T01:55:31;16.80;99.90
16198;DHT22;8206;51.440;6.914;2023-07-20T01:57:58;16.80;99.90
16198;DHT22;8206;51.440;6.914;2023-07-20T02:00:27;16.80;99.90
16198;DHT22;8206;51.440;6.914;2023-07-20T02:02:54;16.70;99.90
16198;DHT22;8206;51.440;6.914;2023-07-20T02:05:20;16.70;99.90
16198;DHT22;8206;51.440;6.914;2023-07-20T02:07:48;16.70;99.90
16198;DHT22;8206;51.440;6.914;2023-07-20T02:10:15;16.70;99.90
16198;DHT22;8206;51.440;6.914;2023-07-20T02:12:42;16.70;99.90
16198;DHT22;8206;51.440;6.914;2023-07-20T02:15:10;16.70;99.90
16198;DHT22;8206;51.440;6.914;2023-07-20T02:17:38;16.70;99.90
16198;DHT22;8206;51.440;6.914;2023-07-20T02:20:07;16.80;99.90
16198;DHT22;8206;51.440;6.914;2023-07-20T02:22:35;16.70;99.90
16198;DHT22;8206;51.440;6.914;2023-07-20T02:25:04;16.60;99.90
16198;DHT22;8206;51.440;6.914;2023-07-20T02:27:30;16.60;99.90
16198;DHT22;8206;51.440;6.914;2023-07-20T02:29:57;16.60;99.90
16198;DHT22;8206;51.440;6.914;2023-07-20T02:32:24;16.60;99.90
16198;DHT22;8206;51.440;6.914;2023-07-20T02:34:51;16.60;99.90
16198;DHT22;8206;51.440;6.914;2023-07-20T02:37:18;16.60;99.90
16198;DHT22;8206;51.440;6.914;2023-07-20T02:39:44;16.60;99.90
16198;DHT22;8206;51.440;6.914;2023-07-20T02:42:12;16.60;99.90
16198;DHT22;8206;51.440;6.914;2023-07-20T02:44:40;16.60;99.90
16198;DHT22;8206;51.440;6.914;2023-07-20T02:47:06;16.60;99.90
16198;DHT22;8206;51.440;6.914;2023-07-20T02:49:34;16.50;99.90
16198;DHT22;8206;51.440;6.914;2023-07-20T02:52:00;16.50;99.90
16198;DHT22;8206;51.440;6.914;2023-07-20T02:54:29;16.40;99.90
16198;DHT22;8206;51.440;6.914;2023-07-20T02:56:56;16.40;99.90
16198;DHT22;8206;51.440;6.914;2023-07-20T02:59:24;16.40;99.90
16198;DHT22;8206;51.440;6.914;2023-07-20T03:01:51;16.40;99.90
16198;DHT22;8206;51.440;6.914;2023-07-20T03:04:18;16.40;99.90
16198;DHT22;8206;51.440;6.914;2023-07-20T03:06:45;16.30;99.90
16198;DHT22;8206;51.440;6.914;2023-07-20T03:09:11;16.20;99.90
16198;DHT22;8206;51.440;6.914;2023-07-20T03:11:38;16.10;99.90
16198;DHT22;8206;51.440;6.914;2023-07-20T03:14:05;16.00;99.90
16198;DHT22;8206;51.440;6.914;2023-07-20T03:16:33;16.00;99.90
16198;DHT22;8206;51.440;6.914;2023-07-20T03:18:59;16.00;99.90
16198;DHT22;8206;51.440;6.914;2023-07-20T03:21:26;16.00;99.90
16198;DHT22;8206;51.440;6.914;2023-07-20T03:23:53;16.20;99.90
16198;DHT22;8206;51.440;6.914;2023-07-20T03:26:20;16.20;99.90
16198;DHT22;8206;51.440;6.914;2023-07-20T03:28:47;16.20;99.90
16198;DHT22;8206;51.440;6.914;2023-07-20T03:31:13;16.20;1.00
16198;DHT22;8206;51.440;6.914;2023-07-20T03:33:42;16.10;1.00
16198;DHT22;8206;51.440;6.914;2023-07-20T03:36:09;16.00;1.00
16198;DHT22;8206;51.440;6.914;2023-07-20T03:38:36;16.10;1.00
16198;DHT22;8206;51.440;6.914;2023-07-20T03:41:03;16.20;99.90
16198;DHT22;8206;51.440;6.914;2023-07-20T03:43:29;16.20;99.90
16198;DHT22;8206;51.440;6.914;2023-07-20T03:45:56;16.30;1.00
16198;DHT22;8206;51.440;6.914;2023-07-20T03:48:23;16.30;1.00
16198;DHT22;8206;51.440;6.914;2023-07-20T03:50:53;16.40;1.00
16198;DHT22;8206;51.440;6.914;2023-07-20T03:53:20;16.40;1.00
16198;DHT22;8206;51.440;6.914;2023-07-20T03:55:47;16.50;1.00
16198;DHT22;8206;51.440;6.914;2023-07-20T03:58:14;16.50;1.00
16198;DHT22;8206;51.440;6.914;2023-07-20T04:00:44;16.50;1.00
16198;DHT22;8206;51.440;6.914;2023-07-20T04:03:11;16.40;1.00
16198;DHT22;8206;51.440;6.914;2023-07-20T04:05:37;16.40;99.90
16198;DHT22;8206;51.440;6.914;2023-07-20T04:08:05;16.40;99.90
16198;DHT22;8206;51.440;6.914;2023-07-20T04:10:32;16.40;99.90
16198;DHT22;8206;51.440;6.914;2023-07-20T04:13:00;16.50;99.90
16198;DHT22;8206;51.440;6.914;2023-07-20T04:15:27;16.50;99.90
16198;DHT22;8206;51.440;6.914;2023-07-20T04:17:54;16.50;99.90
16198;DHT22;8206;51.440;6.914;2023-07-20T04:20:21;16.50;99.90
16198;DHT22;8206;51.440;6.914;2023-07-20T04:22:48;16.50;99.90
16198;DHT22;8206;51.440;6.914;2023-07-20T04:25:17;16.40;99.90
16198;DHT22;8206;51.440;6.914;2023-07-20T04:27:43;16.40;99.90
16198;DHT22;8206;51.440;6.914;2023-07-20T04:30:11;16.60;99.90
16198;DHT22;8206;51.440;6.914;2023-07-20T04:32:38;16.80;99.90
16198;DHT22;8206;51.440;6.914;2023-07-20T04:35:18;16.80;99.90
16198;DHT22;8206;51.440;6.914;2023-07-20T04:37:45;17.00;99.90
16198;DHT22;8206;51.440;6.914;2023-07-20T04:40:12;17.50;99.90
16198;DHT22;8206;51.440;6.914;2023-07-20T04:42:40;18.10;99.90
16198;DHT22;8206;51.440;6.914;2023-07-20T04:45:08;18.00;99.90
16198;DHT22;8206;51.440;6.914;2023-07-20T04:47:35;17.70;99.90
16198;DHT22;8206;51.440;6.914;2023-07-20T04:50:01;17.50;99.90
16198;DHT22;8206;51.440;6.914;2023-07-20T04:52:28;17.30;99.90
16198;DHT22;8206;51.440;6.914;2023-07-20T04:54:55;17.10;99.90
16198;DHT22;8206;51.440;6.914;2023-07-20T04:57:23;17.00;99.90
16198;DHT22;8206;51.440;6.914;2023-07-20T04:59:51;17.10;99.90
16198;DHT22;8206;51.440;6.914;2023-07-20T05:02:18;17.20;99.90
16198;DHT22;8206;51.440;6.914;2023-07-20T05:04:45;17.10;99.90
16198;DHT22;8206;51.440;6.914;2023-07-20T05:07:11;17.10;99.90
16198;DHT22;8206;51.440;6.914;2023-07-20T05:09:38;17.10;99.90
16198;DHT22;8206;51.440;6.914;2023-07-20T05:12:06;17.00;99.90
16198;DHT22;8206;51.440;6.914;2023-07-20T05:14:33;16.90;99.90
16198;DHT22;8206;51.440;6.914;2023-07-20T05:17:01;16.90;99.90
16198;DHT22;8206;51.440;6.914;2023-07-20T05:19:27;16.80;99.90
16198;DHT22;8206;51.440;6.914;2023-07-20T05:21:54;16.80;99.90
16198;DHT22;8206;51.440;6.914;2023-07-20T05:24:21;16.80;99.90
16198;DHT22;8206;51.440;6.914;2023-07-20T05:26:48;16.80;99.90
16198;DHT22;8206;51.440;6.914;2023-07-20T05:29:14;16.80;99.90
16198;DHT22;8206;51.440;6.914;2023-07-20T05:31:41;16.80;99.90
16198;DHT22;8206;51.440;6.914;2023-07-20T05:34:09;16.90;99.90
16198;DHT22;8206;51.440;6.914;2023-07-20T05:36:36;16.80;99.90
16198;DHT22;8206;51.440;6.914;2023-07-20T05:39:03;16.80;99.90
16198;DHT22;8206;51.440;6.914;2023-07-20T05:41:30;16.90;99.90
16198;DHT22;8206;51.440;6.914;2023-07-20T05:43:57;17.00;99.90
16198;DHT22;8206;51.440;6.914;2023-07-20T05:46:23;17.20;99.90
16198;DHT22;8206;51.440;6.914;2023-07-20T05:48:50;17.50;99.90
16198;DHT22;8206;51.440;6.914;2023-07-20T05:51:18;18.80;99.90
16198;DHT22;8206;51.440;6.914;2023-07-20T05:53:45;20.00;99.90
16198;DHT22;8206;51.440;6.914;2023-07-20T05:56:13;20.60;99.90
16198;DHT22;8206;51.440;6.914;2023-07-20T05:58:40;20.50;99.90
16198;DHT22;8206;51.440;6.914;2023-07-20T06:01:07;20.10;99.90
16198;DHT22;8206;51.440;6.914;2023-07-20T06:03:34;19.80;99.90
16198;DHT22;8206;51.440;6.914;2023-07-20T06:06:01;20.00;99.90
16198;DHT22;8206;51.440;6.914;2023-07-20T06:08:29;19.60;99.90
16198;DHT22;8206;51.440;6.914;2023-07-20T06:10:56;19.30;99.90
16198;DHT22;8206;51.440;6.914;2023-07-20T06:13:23;19.70;99.90
16198;DHT22;8206;51.440;6.914;2023-07-20T06:15:50;19.70;99.90
16198;DHT22;8206;51.440;6.914;2023-07-20T06:18:17;19.40;99.90
16198;DHT22;8206;51.440;6.914;2023-07-20T06:20:48;19.40;99.90
16198;DHT22;8206;51.440;6.914;2023-07-20T06:23:15;19.70;99.90
16198;DHT22;8206;51.440;6.914;2023-07-20T06:25:43;19.90;99.90
16198;DHT22;8206;51.440;6.914;2023-07-20T06:28:10;20.10;99.90
16198;DHT22;8206;51.440;6.914;2023-07-20T06:30:37;21.40;99.90
16198;DHT22;8206;51.440;6.914;2023-07-20T06:33:03;23.80;99.90
16198;DHT22;8206;51.440;6.914;2023-07-20T06:35:30;26.00;99.90
16198;DHT22;8206;51.440;6.914;2023-07-20T06:37:57;27.40;99.90
16198;DHT22;8206;51.440;6.914;2023-07-20T06:40:25;27.60;99.90
16198;DHT22;8206;51.440;6.914;2023-07-20T06:42:53;27.00;99.90
16198;DHT22;8206;51.440;6.914;2023-07-20T06:45:20;27.40;99.90
16198;DHT22;8206;51.440;6.914;2023-07-20T06:47:47;28.40;99.90
16198;DHT22;8206;51.440;6.914;2023-07-20T06:50:14;28.80;99.90
16198;DHT22;8206;51.440;6.914;2023-07-20T06:52:41;28.60;99.90
16198;DHT22;8206;51.440;6.914;2023-07-20T06:55:08;28.40;99.90
16198;DHT22;8206;51.440;6.914;2023-07-20T06:57:35;27.40;99.90
16198;DHT22;8206;51.440;6.914;2023-07-20T07:00:04;27.40;99.90
16198;DHT22;8206;51.440;6.914;2023-07-20T07:02:32;28.00;99.90
16198;DHT22;8206;51.440;6.914;2023-07-20T07:04:59;27.80;99.90
16198;DHT22;8206;51.440;6.914;2023-07-20T07:07:26;27.30;99.90
16198;DHT22;8206;51.440;6.914;2023-07-20T07:09:52;27.10;99.90
16198;DHT22;8206;51.440;6.914;2023-07-20T07:12:19;27.50;99.90
16198;DHT22;8206;51.440;6.914;2023-07-20T07:14:46;27.70;99.90
16198;DHT22;8206;51.440;6.914;2023-07-20T07:17:14;27.60;99.90
16198;DHT22;8206;51.440;6.914;2023-07-20T07:19:40;27.10;99.90
16198;DHT22;8206;51.440;6.914;2023-07-20T07:22:07;26.50;99.90
16198;DHT22;8206;51.440;6.914;2023-07-20T07:24:34;25.00;99.90
16198;DHT22;8206;51.440;6.914;2023-07-20T07:27:01;24.50;99.90
16198;DHT22;8206;51.440;6.914;2023-07-20T07:29:29;24.90;99.90
16198;DHT22;8206;51.440;6.914;2023-07-20T07:31:56;24.90;99.90
16198;DHT22;8206;51.440;6.914;2023-07-20T07:34:24;24.30;99.90
16198;DHT22;8206;51.440;6.914;2023-07-20T07:36:51;23.80;99.90
16198;DHT22;8206;51.440;6.914;2023-07-20T07:39:19;23.80;99.90
16198;DHT22;8206;51.440;6.914;2023-07-20T07:41:45;23.50;99.90
16198;DHT22;8206;51.440;6.914;2023-07-20T07:44:12;23.50;99.90
16198;DHT22;8206;51.440;6.914;2023-07-20T07:46:39;23.20;99.90
16198;DHT22;8206;51.440;6.914;2023-07-20T07:49:07;22.80;99.90
16198;DHT22;8206;51.440;6.914;2023-07-20T07:51:35;22.50;99.90
16198;DHT22;8206;51.440;6.914;2023-07-20T07:54:01;21.90;99.90
16198;DHT22;8206;51.440;6.914;2023-07-20T07:56:28;22.00;99.90
16198;DHT22;8206;51.440;6.914;2023-07-20T07:58:55;21.80;99.90
16198;DHT22;8206;51.440;6.914;2023-07-20T08:01:22;21.80;99.90
16198;DHT22;8206;51.440;6.914;2023-07-20T08:03:49;21.80;99.90
16198;DHT22;8206;51.440;6.914;2023-07-20T08:06:16;21.60;99.90
16198;DHT22;8206;51.440;6.914;2023-07-20T08:08:44;21.90;99.90
16198;DHT22;8206;51.440;6.914;2023-07-20T08:11:11;22.30;99.90
16198;DHT22;8206;51.440;6.914;2023-07-20T08:13:38;22.50;99.90
16198;DHT22;8206;51.440;6.914;2023-07-20T08:16:05;22.70;99.90
16198;DHT22;8206;51.440;6.914;2023-07-20T08:18:31;22.50;99.90
16198;DHT22;8206;51.440;6.914;2023-07-20T08:20:58;22.50;99.90
16198;DHT22;8206;51.440;6.914;2023-07-20T08:23:25;22.70;99.90
16198;DHT22;8206;51.440;6.914;2023-07-20T08:25:54;22.50;99.90
16198;DHT22;8206;51.440;6.914;2023-07-20T08:28:21;22.10;99.90
16198;DHT22;8206;51.440;6.914;2023-07-20T08:30:48;21.70;99.90
16198;DHT22;8206;51.440;6.914;2023-07-20T08:33:17;21.10;99.90
16198;DHT22;8206;51.440;6.914;2023-07-20T08:35:45;20.70;99.90
16198;DHT22;8206;51.440;6.914;2023-07-20T08:38:12;20.60;99.90
16198;DHT22;8206;51.440;6.914;2023-07-20T08:40:40;20.60;99.90
16198;DHT22;8206;51.440;6.914;2023-07-20T08:43:09;20.90;99.90
16198;DHT22;8206;51.440;6.914;2023-07-20T08:45:39;21.20;99.90
16198;DHT22;8206;51.440;6.914;2023-07-20T08:48:06;21.50;99.90
16198;DHT22;8206;51.440;6.914;2023-07-20T08:50:34;21.70;99.90
16198;DHT22;8206;51.440;6.914;2023-07-20T08:53:01;21.70;99.90
16198;DHT22;8206;51.440;6.914;2023-07-20T08:55:29;21.50;99.90
16198;DHT22;8206;51.440;6.914;2023-07-20T08:57:57;21.40;99.90
16198;DHT22;8206;51.440;6.914;2023-07-20T09:00:26;21.60;99.90
16198;DHT22;8206;51.440;6.914;2023-07-20T09:02:54;21.70;99.90
16198;DHT22;8206;51.440;6.914;2023-07-20T09:05:23;21.80;99.90
16198;DHT22;8206;51.440;6.914;2023-07-20T09:07:51;21.90;99.90
16198;DHT22;8206;51.440;6.914;2023-07-20T09:10:18;21.80;99.90
16198;DHT22;8206;51.440;6.914;2023-07-20T09:12:46;21.80;99.90
16198;DHT22;8206;51.440;6.914;2023-07-20T09:15:14;22.00;99.90
16198;DHT22;8206;51.440;6.914;2023-07-20T09:17:45;22.00;99.90
16198;DHT22;8206;51.440;6.914;2023-07-20T09:20:15;22.00;99.90
16198;DHT22;8206;51.440;6.914;2023-07-20T09:22:42;21.90;99.90
16198;DHT22;8206;51.440;6.914;2023-07-20T09:25:12;21.70;99.90
16198;DHT22;8206;51.440;6.914;2023-07-20T09:27:40;21.60;99.90
16198;DHT22;8206;51.440;6.914;2023-07-20T09:30:08;21.80;99.90
16198;DHT22;8206;51.440;6.914;2023-07-20T09:32:40;22.00;99.90
16198;DHT22;8206;51.440;6.914;2023-07-20T09:35:14;22.50;99.90
16198;DHT22;8206;51.440;6.914;2023-07-20T09:37:46;23.00;99.90
16198;DHT22;8206;51.440;6.914;2023-07-20T09:40:15;22.80;99.90
16198;DHT22;8206;51.440;6.914;2023-07-20T09:42:43;22.20;99.90
16198;DHT22;8206;51.440;6.914;2023-07-20T09:45:10;21.50;99.90
16198;DHT22;8206;51.440;6.914;2023-07-20T09:47:37;21.00;99.90
16198;DHT22;8206;51.440;6.914;2023-07-20T09:50:06;20.80;99.90
16198;DHT22;8206;51.440;6.914;2023-07-20T09:52:37;20.90;99.90
16198;DHT22;8206;51.440;6.914;2023-07-20T09:55:06;21.40;99.90
16198;DHT22;8206;51.440;6.914;2023-07-20T09:57:34;21.90;99.90
16198;DHT22;8206;51.440;6.914;2023-07-20T10:00:05;22.50;99.90
16198;DHT22;8206;51.440;6.914;2023-07-20T10:02:42;22.90;99.90
16198;DHT22;8206;51.440;6.914;2023-07-20T10:05:12;23.10;99.90
16198;DHT22;8206;51.440;6.914;2023-07-20T10:07:44;23.60;99.90
16198;DHT22;8206;51.440;6.914;2023-07-20T10:10:14;23.90;99.90
16198;DHT22;8206;51.440;6.914;2023-07-20T10:12:41;23.80;99.90
16198;DHT22;8206;51.440;6.914;2023-07-20T10:15:11;23.60;99.90
16198;DHT22;8206;51.440;6.914;2023-07-20T10:17:48;23.10;99.90
16198;DHT22;8206;51.440;6.914;2023-07-20T10:20:16;22.80;99.90
16198;DHT22;8206;51.440;6.914;2023-07-20T10:22:48;22.70;99.90
16198;DHT22;8206;51.440;6.914;2023-07-20T10:25:16;22.60;99.90
16198;DHT22;8206;51.440;6.914;2023-07-20T10:27:43;22.60;99.90
16198;DHT22;8206;51.440;6.914;2023-07-20T10:30:10;22.40;99.90
16198;DHT22;8206;51.440;6.914;2023-07-20T10:32:38;22.10;99.90
16198;DHT22;8206;51.440;6.914;2023-07-20T10:35:13;21.80;99.90
16198;DHT22;8206;51.440;6.914;2023-07-20T10:37:52;21.50;99.90
16198;DHT22;8206;51.440;6.914;2023-07-20T10:40:24;21.30;99.90
16198;DHT22;8206;51.440;6.914;2023-07-20T10:42:56;21.40;99.90
16198;DHT22;8206;51.440;6.914;2023-07-20T10:45:42;21.70;99.90
16198;DHT22;8206;51.440;6.914;2023-07-20T10:48:16;21.80;99.90
16198;DHT22;8206;51.440;6.914;2023-07-20T10:50:45;22.00;99.90
16198;DHT22;8206;51.440;6.914;2023-07-20T10:53:18;22.30;99.90
16198;DHT22;8206;51.440;6.914;2023-07-20T10:55:44;22.40;99.90
16198;DHT22;8206;51.440;6.914;2023-07-20T10:58:15;22.60;99.90
16198;DHT22;8206;51.440;6.914;2023-07-20T11:00:59;22.60;99.90
16198;DHT22;8206;51.440;6.914;2023-07-20T11:03:27;22.70;99.90
16198;DHT22;8206;51.440;6.914;2023-07-20T11:05:54;22.90;99.90
16198;DHT22;8206;51.440;6.914;2023-07-20T11:08:38;23.00;99.90
16198;DHT22;8206;51.440;6.914;2023-07-20T11:11:25;23.10;99.90
16198;DHT22;8206;51.440;6.914;2023-07-20T11:13:56;23.40;99.90
16198;DHT22;8206;51.440;6.914;2023-07-20T11:16:40;23.40;99.90
16198;DHT22;8206;51.440;6.914;2023-07-20T11:19:14;23.00;99.90
16198;DHT22;8206;51.440;6.914;2023-07-20T11:21:43;22.70;99.90
16198;DHT22;8206;51.440;6.914;2023-07-20T11:24:13;22.80;99.90
16198;DHT22;8206;51.440;6.914;2023-07-20T11:26:43;23.10;99.90
16198;DHT22;8206;51.440;6.914;2023-07-20T11:29:10;23.40;99.90
16198;DHT22;8206;51.440;6.914;2023-07-20T11:31:38;23.60;99.90
16198;DHT22;8206;51.440;6.914;2023-07-20T11:34:05;23.60;99.90
16198;DHT22;8206;51.440;6.914;2023-07-20T11:36:33;23.90;99.90
16198;DHT22;8206;51.440;6.914;2023-07-20T11:39:00;23.90;99.90
16198;DHT22;8206;51.440;6.914;2023-07-20T11:41:31;23.70;99.90
16198;DHT22;8206;51.440;6.914;2023-07-20T11:43:59;24.10;99.90
16198;DHT22;8206;51.440;6.914;2023-07-20T11:46:27;24.20;99.90
16198;DHT22;8206;51.440;6.914;2023-07-20T11:48:57;23.90;99.90
16198;DHT22;8206;51.440;6.914;2023-07-20T11:51:25;23.60;99.90
16198;DHT22;8206;51.440;6.914;2023-07-20T11:53:53;23.30;99.90
16198;DHT22;8206;51.440;6.914;2023-07-20T11:56:19;23.40;99.90
16198;DHT22;8206;51.440;6.914;2023-07-20T11:58:47;23.50;99.90
16198;DHT22;8206;51.440;6.914;2023-07-20T12:01:14;23.40;99.90
16198;DHT22;8206;51.440;6.914;2023-07-20T12:03:42;23.70;99.90
16198;DHT22;8206;51.440;6.914;2023-07-20T12:06:10;24.10;99.90
16198;DHT22;8206;51.440;6.914;2023-07-20T12:08:38;24.00;99.90
16198;DHT22;8206;51.440;6.914;2023-07-20T12:11:06;24.10;99.90
16198;DHT22;8206;51.440;6.914;2023-07-20T12:13:37;24.30;99.90
16198;DHT22;8206;51.440;6.914;2023-07-20T12:16:10;24.70;99.90
16198;DHT22;8206;51.440;6.914;2023-07-20T12:18:38;24.50;99.90
16198;DHT22;8206;51.440;6.914;2023-07-20T12:21:06;24.70;99.90
16198;DHT22;8206;51.440;6.914;2023-07-20T12:23:38;24.60;99.90
16198;DHT22;8206;51.440;6.914;2023-07-20T12:26:08;24.20;99.90
16198;DHT22;8206;51.440;6.914;2023-07-20T12:28:38;24.00;99.90
16198;DHT22;8206;51.440;6.914;2023-07-20T12:31:06;24.10;99.90
16198;DHT22;8206;51.440;6.914;2023-07-20T12:33:35;24.50;99.90
16198;DHT22;8206;51.440;6.914;2023-07-20T12:36:01;24.60;99.90
16198;DHT22;8206;51.440;6.914;2023-07-20T12:38:28;24.60;99.90
16198;DHT22;8206;51.440;6.914;2023-07-20T12:40:56;24.70;99.90
16198;DHT22;8206;51.440;6.914;2023-07-20T12:43:24;24.60;99.90
16198;DHT22;8206;51.440;6.914;2023-07-20T12:45:51;24.60;99.90
16198;DHT22;8206;51.440;6.914;2023-07-20T12:48:17;24.50;99.90
16198;DHT22;8206;51.440;6.914;2023-07-20T12:50:45;24.30;99.90
16198;DHT22;8206;51.440;6.914;2023-07-20T12:53:12;24.10;99.90
16198;DHT22;8206;51.440;6.914;2023-07-20T12:55:39;24.10;99.90
16198;DHT22;8206;51.440;6.914;2023-07-20T12:58:07;24.50;99.90
16198;DHT22;8206;51.440;6.914;2023-07-20T13:00:33;24.80;99.90
16198;DHT22;8206;51.440;6.914;2023-07-20T13:03:00;24.80;99.90
16198;DHT22;8206;51.440;6.914;2023-07-20T13:05:30;24.90;99.90
16198;DHT22;8206;51.440;6.914;2023-07-20T13:07:58;24.70;99.90
16198;DHT22;8206;51.440;6.914;2023-07-20T13:10:25;24.50;99.90
16198;DHT22;8206;51.440;6.914;2023-07-20T13:12:52;24.40;99.90
16198;DHT22;8206;51.440;6.914;2023-07-20T13:15:18;24.80;99.90
16198;DHT22;8206;51.440;6.914;2023-07-20T13:17:45;25.10;99.90
16198;DHT22;8206;51.440;6.914;2023-07-20T13:20:12;25.00;99.90
16198;DHT22;8206;51.440;6.914;2023-07-20T13:22:40;24.70;99.90
16198;DHT22;8206;51.440;6.914;2023-07-20T13:25:09;24.40;99.90
16198;DHT22;8206;51.440;6.914;2023-07-20T13:27:36;24.50;99.90
16198;DHT22;8206;51.440;6.914;2023-07-20T13:30:04;24.60;99.90
16198;DHT22;8206;51.440;6.914;2023-07-20T13:32:32;24.50;99.90
16198;DHT22;8206;51.440;6.914;2023-07-20T13:34:59;24.70;99.90
16198;DHT22;8206;51.440;6.914;2023-07-20T13:37:26;24.90;99.90
16198;DHT22;8206;51.440;6.914;2023-07-20T13:39:53;24.90;99.90
16198;DHT22;8206;51.440;6.914;2023-07-20T13:42:21;25.00;99.90
16198;DHT22;8206;51.440;6.914;2023-07-20T13:44:48;25.30;99.90
16198;DHT22;8206;51.440;6.914;2023-07-20T13:47:15;25.60;99.90
16198;DHT22;8206;51.440;6.914;2023-07-20T13:49:43;25.80;99.90
16198;DHT22;8206;51.440;6.914;2023-07-20T13:52:10;25.90;99.90
16198;DHT22;8206;51.440;6.914;2023-07-20T13:54:36;25.60;99.90
16198;DHT22;8206;51.440;6.914;2023-07-20T13:57:03;25.40;99.90
16198;DHT22;8206;51.440;6.914;2023-07-20T13:59:31;25.20;99.90
16198;DHT22;8206;51.440;6.914;2023-07-20T14:01:58;25.00;99.90
16198;DHT22;8206;51.440;6.914;2023-07-20T14:04:25;25.00;99.90
16198;DHT22;8206;51.440;6.914;2023-07-20T14:06:51;24.90;99.90
16198;DHT22;8206;51.440;6.914;2023-07-20T14:09:18;25.00;99.90
16198;DHT22;8206;51.440;6.914;2023-07-20T14:11:45;25.20;99.90
16198;DHT22;8206;51.440;6.914;2023-07-20T14:14:11;25.20;99.90
16198;DHT22;8206;51.440;6.914;2023-07-20T14:16:39;25.30;99.90
16198;DHT22;8206;51.440;6.914;2023-07-20T14:19:06;25.30;99.90
16198;DHT22;8206;51.440;6.914;2023-07-20T14:21:33;25.30;99.90
16198;DHT22;8206;51.440;6.914;2023-07-20T14:24:00;25.30;99.90
16198;DHT22;8206;51.440;6.914;2023-07-20T14:26:27;25.40;99.90
16198;DHT22;8206;51.440;6.914;2023-07-20T14:28:54;25.50;99.90
16198;DHT22;8206;51.440;6.914;2023-07-20T14:31:20;25.40;99.90
16198;DHT22;8206;51.440;6.914;2023-07-20T14:33:48;25.60;99.90
16198;DHT22;8206;51.440;6.914;2023-07-20T14:36:16;25.40;99.90
16198;DHT22;8206;51.440;6.914;2023-07-20T14:38:42;25.20;99.90
16198;DHT22;8206;51.440;6.914;2023-07-20T14:41:09;25.00;99.90
16198;DHT22;8206;51.440;6.914;2023-07-20T14:43:36;24.90;99.90
16198;DHT22;8206;51.440;6.914;2023-07-20T14:46:04;25.10;99.90
16198;DHT22;8206;51.440;6.914;2023-07-20T14:48:31;25.30;99.90
16198;DHT22;8206;51.440;6.914;2023-07-20T14:50:59;25.60;99.90
16198;DHT22;8206;51.440;6.914;2023-07-20T14:53:25;25.60;99.90
16198;DHT22;8206;51.440;6.914;2023-07-20T14:55:58;25.60;99.90
16198;DHT22;8206;51.440;6.914;2023-07-20T14:58:25;25.50;99.90
16198;DHT22;8206;51.440;6.914;2023-07-20T15:00:51;25.40;99.90
16198;DHT22;8206;51.440;6.914;2023-07-20T15:03:18;25.20;99.90
16198;DHT22;8206;51.440;6.914;2023-07-20T15:05:45;25.10;99.90
16198;DHT22;8206;51.440;6.914;2023-07-20T15:08:13;25.20;99.90
16198;DHT22;8206;51.440;6.914;2023-07-20T15:10:39;25.40;99.90
16198;DHT22;8206;51.440;6.914;2023-07-20T15:13:06;25.50;99.90
16198;DHT22;8206;51.440;6.914;2023-07-20T15:15:33;25.60;99.90
16198;DHT22;8206;51.440;6.914;2023-07-20T15:17:59;25.60;99.90
16198;DHT22;8206;51.440;6.914;2023-07-20T15:20:26;25.50;99.90
16198;DHT22;8206;51.440;6.914;2023-07-20T15:22:53;25.30;99.90
16198;DHT22;8206;51.440;6.914;2023-07-20T15:25:21;25.40;99.90
16198;DHT22;8206;51.440;6.914;2023-07-20T15:27:48;25.40;99.90
16198;DHT22;8206;51.440;6.914;2023-07-20T15:30:15;25.50;99.90
16198;DHT22;8206;51.440;6.914;2023-07-20T15:32:42;25.80;99.90
16198;DHT22;8206;51.440;6.914;2023-07-20T15:35:09;26.30;99.90
16198;DHT22;8206;51.440;6.914;2023-07-20T15:37:36;26.50;99.90
16198;DHT22;8206;51.440;6.914;2023-07-20T15:40:04;26.30;99.90
16198;DHT22;8206;51.440;6.914;2023-07-20T15:42:33;26.40;99.90
16198;DHT22;8206;51.440;6.914;2023-07-20T15:44:59;26.30;99.90
16198;DHT22;8206;51.440;6.914;2023-07-20T15:47:26;26.00;99.90
16198;DHT22;8206;51.440;6.914;2023-07-20T15:49:53;25.60;99.90
16198;DHT22;8206;51.440;6.914;2023-07-20T15:52:20;25.60;99.90